sensor_id;sensor_type;location;lat;lon;timestamp;P1;durP1;ratioP1;P2;durP2;ratioP2
53287;SDS011;39172;45.550;12.072;2023-03-31T00:00:31;10.63;;;8.50;;
53287;SDS011;39172;45.550;12.072;2023-03-31T00:06:32;9.10;;;7.45;;
53287;SDS011;39172;45.550;12.072;2023-03-31T00:12:37;11.57;;;8.95;;
53287;SDS011;39172;45.550;12.072;2023-03-31T00:18:38;10.50;;;8.40;;
53287;SDS011;39172;45.550;12.072;2023-03-31T00:24:47;7.57;;;5.80;;
53287;SDS011;39172;45.550;12.072;2023-03-31T00:30:48;10.15;;;7.78;;
53287;SDS011;39172;45.550;12.072;2023-03-31T00:36:49;6.75;;;5.07;;
53287;SDS011;39172;45.550;12.072;2023-03-31T00:42:50;5.05;;;4.50;;
53287;SDS011;39172;45.550;12.072;2023-03-31T00:48:53;4.78;;;3.83;;
53287;SDS011;39172;45.550;12.072;2023-03-31T00:54:58;9.15;;;7.20;;
53287;SDS011;39172;45.550;12.072;2023-03-31T01:01:00;10.88;;;9.20;;
53287;SDS011;39172;45.550;12.072;2023-03-31T01:07:09;8.82;;;6.95;;
53287;SDS011;39172;45.550;12.072;2023-03-31T01:13:13;9.18;;;7.18;;
53287;SDS011;39172;45.550;12.072;2023-03-31T01:19:29;8.43;;;6.53;;
53287;SDS011;39172;45.550;12.072;2023-03-31T01:31:50;4.65;;;3.80;;
53287;SDS011;39172;45.550;12.072;2023-03-31T01:50:22;7.40;;;5.90;;
53287;SDS011;39172;45.550;12.072;2023-03-31T01:56:27;8.27;;;6.07;;
53287;SDS011;39172;45.550;12.072;2023-03-31T02:02:31;8.75;;;6.90;;
53287;SDS011;39172;45.550;12.072;2023-03-31T02:08:44;4.97;;;3.95;;
53287;SDS011;39172;45.550;12.072;2023-03-31T02:14:46;7.73;;;5.93;;
53287;SDS011;39172;45.550;12.072;2023-03-31T02:20:48;8.60;;;6.30;;
53287;SDS011;39172;45.550;12.072;2023-03-31T02:27:11;7.97;;;5.85;;
53287;SDS011;39172;45.550;12.072;2023-03-31T02:33:15;8.18;;;6.38;;
53287;SDS011;39172;45.550;12.072;2023-03-31T02:39:22;8.25;;;6.53;;
53287;SDS011;39172;45.550;12.072;2023-03-31T03:04:22;8.63;;;6.53;;
53287;SDS011;39172;45.550;12.072;2023-03-31T03:10:34;12.85;;;9.07;;
53287;SDS011;39172;45.550;12.072;2023-03-31T03:16:38;16.77;;;11.82;;
53287;SDS011;39172;45.550;12.072;2023-03-31T03:22:41;17.23;;;12.52;;
53287;SDS011;39172;45.550;12.072;2023-03-31T03:28:41;16.60;;;12.38;;
53287;SDS011;39172;45.550;12.072;2023-03-31T03:34:43;11.73;;;8.45;;
53287;SDS011;39172;45.550;12.072;2023-03-31T03:40:43;12.88;;;9.38;;
53287;SDS011;39172;45.550;12.072;2023-03-31T03:46:44;10.27;;;7.97;;
53287;SDS011;39172;45.550;12.072;2023-03-31T03:52:45;7.63;;;5.97;;
53287;SDS011;39172;45.550;12.072;2023-03-31T03:58:46;8.93;;;7.00;;
53287;SDS011;39172;45.550;12.072;2023-03-31T04:04:47;6.63;;;4.68;;
53287;SDS011;39172;45.550;12.072;2023-03-31T04:10:49;7.35;;;5.43;;
53287;SDS011;39172;45.550;12.072;2023-03-31T04:16:50;7.75;;;6.10;;
53287;SDS011;39172;45.550;12.072;2023-03-31T04:22:51;5.90;;;4.65;;
53287;SDS011;39172;45.550;12.072;2023-03-31T04:28:51;7.40;;;5.82;;
53287;SDS011;39172;45.550;12.072;2023-03-31T04:34:52;7.18;;;5.78;;
53287;SDS011;39172;45.550;12.072;2023-03-31T04:41:02;4.53;;;3.65;;
53287;SDS011;39172;45.550;12.072;2023-03-31T04:47:03;6.65;;;4.97;;
53287;SDS011;39172;45.550;12.072;2023-03-31T04:53:06;7.30;;;5.57;;
53287;SDS011;39172;45.550;12.072;2023-03-31T04:59:07;10.68;;;7.45;;
53287;SDS011;39172;45.550;12.072;2023-03-31T05:05:08;7.28;;;5.40;;
53287;SDS011;39172;45.550;12.072;2023-03-31T05:11:10;6.43;;;5.10;;
53287;SDS011;39172;45.550;12.072;2023-03-31T05:17:11;8.02;;;5.28;;
53287;SDS011;39172;45.550;12.072;2023-03-31T05:23:12;9.07;;;5.68;;
53287;SDS011;39172;45.550;12.072;2023-03-31T05:29:13;8.65;;;5.75;;
53287;SDS011;39172;45.550;12.072;2023-03-31T05:35:16;13.40;;;7.82;;
53287;SDS011;39172;45.550;12.072;2023-03-31T05:41:17;11.73;;;7.82;;
53287;SDS011;39172;45.550;12.072;2023-03-31T05:47:17;12.57;;;8.60;;
53287;SDS011;39172;45.550;12.072;2023-03-31T05:53:18;11.10;;;7.80;;
53287;SDS011;39172;45.550;12.072;2023-03-31T05:59:22;10.88;;;7.00;;
53287;SDS011;39172;45.550;12.072;2023-03-31T06:05:23;12.32;;;8.50;;
53287;SDS011;39172;45.550;12.072;2023-03-31T06:11:26;14.32;;;9.23;;
53287;SDS011;39172;45.550;12.072;2023-03-31T06:17:27;20.40;;;11.23;;
53287;SDS011;39172;45.550;12.072;2023-03-31T06:23:28;15.95;;;10.45;;
53287;SDS011;39172;45.550;12.072;2023-03-31T06:29:29;12.68;;;7.00;;
53287;SDS011;39172;45.550;12.072;2023-03-31T06:35:30;9.55;;;5.35;;
53287;SDS011;39172;45.550;12.072;2023-03-31T06:41:31;12.57;;;7.15;;
53287;SDS011;39172;45.550;12.072;2023-03-31T06:47:31;12.23;;;7.80;;
53287;SDS011;39172;45.550;12.072;2023-03-31T06:53:32;10.27;;;6.80;;
53287;SDS011;39172;45.550;12.072;2023-03-31T06:59:34;9.40;;;5.95;;
53287;SDS011;39172;45.550;12.072;2023-03-31T07:05:35;12.43;;;8.10;;
53287;SDS011;39172;45.550;12.072;2023-03-31T07:11:36;8.48;;;6.60;;
53287;SDS011;39172;45.550;12.072;2023-03-31T07:17:37;9.57;;;6.15;;
53287;SDS011;39172;45.550;12.072;2023-03-31T07:23:41;8.68;;;6.45;;
53287;SDS011;39172;45.550;12.072;2023-03-31T07:29:42;7.25;;;5.10;;
53287;SDS011;39172;45.550;12.072;2023-03-31T07:35:43;6.43;;;4.50;;
53287;SDS011;39172;45.550;12.072;2023-03-31T07:41:44;8.07;;;5.40;;
53287;SDS011;39172;45.550;12.072;2023-03-31T07:47:45;7.55;;;5.25;;
53287;SDS011;39172;45.550;12.072;2023-03-31T07:53:46;6.97;;;5.55;;
53287;SDS011;39172;45.550;12.072;2023-03-31T07:59:49;10.40;;;7.68;;
53287;SDS011;39172;45.550;12.072;2023-03-31T08:05:50;8.75;;;6.47;;
53287;SDS011;39172;45.550;12.072;2023-03-31T08:11:51;6.85;;;4.97;;
53287;SDS011;39172;45.550;12.072;2023-03-31T08:17:52;7.07;;;5.32;;
53287;SDS011;39172;45.550;12.072;2023-03-31T08:23:54;6.97;;;5.25;;
53287;SDS011;39172;45.550;12.072;2023-03-31T08:29:55;10.63;;;7.68;;
53287;SDS011;39172;45.550;12.072;2023-03-31T08:35:55;9.45;;;7.00;;
53287;SDS011;39172;45.550;12.072;2023-03-31T08:42:00;8.82;;;6.80;;
53287;SDS011;39172;45.550;12.072;2023-03-31T08:48:36;13.40;;;9.25;;
53287;SDS011;39172;45.550;12.072;2023-03-31T08:54:47;9.60;;;6.72;;
53287;SDS011;39172;45.550;12.072;2023-03-31T09:00:56;9.40;;;6.63;;
53287;SDS011;39172;45.550;12.072;2023-03-31T09:25:33;8.15;;;6.05;;
53287;SDS011;39172;45.550;12.072;2023-03-31T09:31:35;6.97;;;4.85;;
53287;SDS011;39172;45.550;12.072;2023-03-31T09:37:37;7.18;;;5.20;;
53287;SDS011;39172;45.550;12.072;2023-03-31T09:43:39;7.55;;;5.57;;
53287;SDS011;39172;45.550;12.072;2023-03-31T09:49:40;8.63;;;5.43;;
53287;SDS011;39172;45.550;12.072;2023-03-31T09:55:43;15.65;;;10.27;;
53287;SDS011;39172;45.550;12.072;2023-03-31T10:01:51;13.50;;;9.35;;
53287;SDS011;39172;45.550;12.072;2023-03-31T10:14:14;14.75;;;10.10;;
53287;SDS011;39172;45.550;12.072;2023-03-31T10:20:20;17.90;;;11.70;;
53287;SDS011;39172;45.550;12.072;2023-03-31T10:26:25;12.10;;;8.50;;
53287;SDS011;39172;45.550;12.072;2023-03-31T10:32:27;12.95;;;9.00;;
53287;SDS011;39172;45.550;12.072;2023-03-31T10:38:29;12.00;;;8.43;;
53287;SDS011;39172;45.550;12.072;2023-03-31T10:44:35;13.50;;;8.88;;
53287;SDS011;39172;45.550;12.072;2023-03-31T10:50:37;18.25;;;12.23;;
53287;SDS011;39172;45.550;12.072;2023-03-31T10:57:11;21.67;;;13.80;;
53287;SDS011;39172;45.550;12.072;2023-03-31T11:15:11;21.02;;;13.85;;
53287;SDS011;39172;45.550;12.072;2023-03-31T11:46:03;17.83;;;11.30;;
53287;SDS011;39172;45.550;12.072;2023-03-31T11:52:06;29.67;;;18.60;;
53287;SDS011;39172;45.550;12.072;2023-03-31T11:58:14;20.77;;;13.07;;
53287;SDS011;39172;45.550;12.072;2023-03-31T12:04:50;17.40;;;11.15;;
53287;SDS011;39172;45.550;12.072;2023-03-31T12:10:45;20.42;;;12.20;;
53287;SDS011;39172;45.550;12.072;2023-03-31T12:16:52;17.80;;;10.88;;
53287;SDS011;39172;45.550;12.072;2023-03-31T12:22:54;18.45;;;12.65;;
53287;SDS011;39172;45.550;12.072;2023-03-31T12:28:57;17.25;;;11.13;;
53287;SDS011;39172;45.550;12.072;2023-03-31T12:35:01;29.33;;;17.95;;
53287;SDS011;39172;45.550;12.072;2023-03-31T12:41:07;42.50;;;25.88;;
53287;SDS011;39172;45.550;12.072;2023-03-31T12:47:17;31.92;;;20.13;;
53287;SDS011;39172;45.550;12.072;2023-03-31T12:53:30;25.60;;;17.00;;
53287;SDS011;39172;45.550;12.072;2023-03-31T12:59:39;34.90;;;23.20;;
53287;SDS011;39172;45.550;12.072;2023-03-31T13:05:43;32.00;;;20.83;;
53287;SDS011;39172;45.550;12.072;2023-03-31T13:11:45;36.58;;;23.02;;
53287;SDS011;39172;45.550;12.072;2023-03-31T13:17:53;43.83;;;27.67;;
53287;SDS011;39172;45.550;12.072;2023-03-31T13:24:01;39.33;;;24.88;;
53287;SDS011;39172;45.550;12.072;2023-03-31T13:30:02;37.65;;;24.95;;
53287;SDS011;39172;45.550;12.072;2023-03-31T13:48:36;43.95;;;27.95;;
53287;SDS011;39172;45.550;12.072;2023-03-31T14:00:48;43.63;;;27.98;;
53287;SDS011;39172;45.550;12.072;2023-03-31T14:06:56;44.78;;;28.10;;
53287;SDS011;39172;45.550;12.072;2023-03-31T14:19:35;86.93;;;45.20;;
53287;SDS011;39172;45.550;12.072;2023-03-31T14:38:10;33.28;;;20.90;;
53287;SDS011;39172;45.550;12.072;2023-03-31T14:44:13;26.80;;;16.63;;
53287;SDS011;39172;45.550;12.072;2023-03-31T14:50:20;42.03;;;23.95;;
53287;SDS011;39172;45.550;12.072;2023-03-31T14:56:23;40.55;;;24.58;;
53287;SDS011;39172;45.550;12.072;2023-03-31T15:02:31;56.67;;;30.85;;
53287;SDS011;39172;45.550;12.072;2023-03-31T15:08:33;29.40;;;18.88;;
53287;SDS011;39172;45.550;12.072;2023-03-31T15:14:44;24.70;;;15.95;;
53287;SDS011;39172;45.550;12.072;2023-03-31T15:20:46;19.77;;;12.77;;
53287;SDS011;39172;45.550;12.072;2023-03-31T15:27:03;20.85;;;13.43;;
53287;SDS011;39172;45.550;12.072;2023-03-31T15:33:06;18.88;;;11.80;;
53287;SDS011;39172;45.550;12.072;2023-03-31T15:39:09;12.85;;;9.30;;
53287;SDS011;39172;45.550;12.072;2023-03-31T15:51:25;11.43;;;8.68;;
53287;SDS011;39172;45.550;12.072;2023-03-31T15:57:32;9.80;;;6.90;;
53287;SDS011;39172;45.550;12.072;2023-03-31T16:03:34;7.85;;;4.88;;
53287;SDS011;39172;45.550;12.072;2023-03-31T16:09:57;7.60;;;5.78;;
53287;SDS011;39172;45.550;12.072;2023-03-31T16:15:59;14.75;;;8.57;;
53287;SDS011;39172;45.550;12.072;2023-03-31T16:22:01;15.30;;;8.40;;
53287;SDS011;39172;45.550;12.072;2023-03-31T16:28:04;15.10;;;8.25;;
53287;SDS011;39172;45.550;12.072;2023-03-31T16:34:08;9.63;;;5.80;;
53287;SDS011;39172;45.550;12.072;2023-03-31T16:40:10;7.82;;;4.75;;
53287;SDS011;39172;45.550;12.072;2023-03-31T16:46:11;7.57;;;4.80;;
53287;SDS011;39172;45.550;12.072;2023-03-31T16:52:12;7.00;;;4.40;;
53287;SDS011;39172;45.550;12.072;2023-03-31T16:58:13;7.22;;;4.53;;
53287;SDS011;39172;45.550;12.072;2023-03-31T17:04:14;6.78;;;3.70;;
53287;SDS011;39172;45.550;12.072;2023-03-31T17:10:15;9.13;;;4.95;;
53287;SDS011;39172;45.550;12.072;2023-03-31T17:16:16;7.28;;;4.40;;
53287;SDS011;39172;45.550;12.072;2023-03-31T17:22:17;7.38;;;4.30;;
53287;SDS011;39172;45.550;12.072;2023-03-31T17:28:18;6.13;;;4.22;;
53287;SDS011;39172;45.550;12.072;2023-03-31T17:34:19;5.28;;;3.70;;
53287;SDS011;39172;45.550;12.072;2023-03-31T17:40:24;7.00;;;3.97;;
53287;SDS011;39172;45.550;12.072;2023-03-31T17:46:25;4.22;;;3.05;;
53287;SDS011;39172;45.550;12.072;2023-03-31T17:52:26;5.28;;;3.40;;
53287;SDS011;39172;45.550;12.072;2023-03-31T17:58:28;5.32;;;3.70;;
53287;SDS011;39172;45.550;12.072;2023-03-31T18:04:29;7.88;;;5.03;;
53287;SDS011;39172;45.550;12.072;2023-03-31T18:10:30;7.63;;;4.95;;
53287;SDS011;39172;45.550;12.072;2023-03-31T18:16:33;6.10;;;4.78;;
53287;SDS011;39172;45.550;12.072;2023-03-31T18:22:34;9.35;;;6.47;;
53287;SDS011;39172;45.550;12.072;2023-03-31T18:28:36;11.60;;;6.63;;
53287;SDS011;39172;45.550;12.072;2023-03-31T18:34:39;10.15;;;6.88;;
53287;SDS011;39172;45.550;12.072;2023-03-31T18:40:45;9.55;;;5.97;;
53287;SDS011;39172;45.550;12.072;2023-03-31T18:46:46;6.70;;;4.75;;
53287;SDS011;39172;45.550;12.072;2023-03-31T18:52:48;6.32;;;4.82;;
53287;SDS011;39172;45.550;12.072;2023-03-31T18:58:51;6.28;;;4.70;;
53287;SDS011;39172;45.550;12.072;2023-03-31T19:04:52;12.50;;;8.52;;
53287;SDS011;39172;45.550;12.072;2023-03-31T19:11:01;10.98;;;8.00;;
53287;SDS011;39172;45.550;12.072;2023-03-31T19:17:02;9.35;;;7.80;;
53287;SDS011;39172;45.550;12.072;2023-03-31T19:23:03;10.50;;;7.78;;
53287;SDS011;39172;45.550;12.072;2023-03-31T19:29:05;11.75;;;7.75;;
53287;SDS011;39172;45.550;12.072;2023-03-31T19:35:06;18.65;;;13.75;;
53287;SDS011;39172;45.550;12.072;2023-03-31T19:41:07;21.60;;;14.98;;
53287;SDS011;39172;45.550;12.072;2023-03-31T19:47:09;22.35;;;17.02;;
53287;SDS011;39172;45.550;12.072;2023-03-31T19:53:10;30.05;;;19.98;;
53287;SDS011;39172;45.550;12.072;2023-03-31T19:59:12;28.10;;;19.85;;
53287;SDS011;39172;45.550;12.072;2023-03-31T20:05:12;32.35;;;21.80;;
53287;SDS011;39172;45.550;12.072;2023-03-31T20:11:14;27.80;;;20.88;;
53287;SDS011;39172;45.550;12.072;2023-03-31T20:17:15;28.67;;;19.13;;
53287;SDS011;39172;45.550;12.072;2023-03-31T20:23:17;21.83;;;16.45;;
53287;SDS011;39172;45.550;12.072;2023-03-31T20:29:18;16.30;;;12.70;;
53287;SDS011;39172;45.550;12.072;2023-03-31T20:35:19;25.38;;;16.58;;
53287;SDS011;39172;45.550;12.072;2023-03-31T20:41:21;29.13;;;20.00;;
53287;SDS011;39172;45.550;12.072;2023-03-31T20:47:24;23.13;;;16.15;;
53287;SDS011;39172;45.550;12.072;2023-03-31T20:53:26;26.70;;;17.40;;
53287;SDS011;39172;45.550;12.072;2023-03-31T20:59:27;27.20;;;18.85;;
53287;SDS011;39172;45.550;12.072;2023-03-31T21:05:28;23.20;;;16.50;;
53287;SDS011;39172;45.550;12.072;2023-03-31T21:11:29;21.75;;;15.55;;
53287;SDS011;39172;45.550;12.072;2023-03-31T21:17:30;20.13;;;14.32;;
53287;SDS011;39172;45.550;12.072;2023-03-31T21:23:31;19.65;;;13.85;;
53287;SDS011;39172;45.550;12.072;2023-03-31T21:29:32;21.27;;;15.00;;
53287;SDS011;39172;45.550;12.072;2023-03-31T21:35:33;24.67;;;17.15;;
53287;SDS011;39172;45.550;12.072;2023-03-31T21:41:34;21.38;;;15.27;;
53287;SDS011;39172;45.550;12.072;2023-03-31T21:47:35;19.10;;;13.38;;
53287;SDS011;39172;45.550;12.072;2023-03-31T21:53:36;20.23;;;14.50;;
53287;SDS011;39172;45.550;12.072;2023-03-31T21:59:38;14.65;;;11.10;;
53287;SDS011;39172;45.550;12.072;2023-03-31T22:05:39;11.90;;;8.90;;
53287;SDS011;39172;45.550;12.072;2023-03-31T22:11:40;9.23;;;6.57;;
53287;SDS011;39172;45.550;12.072;2023-03-31T22:17:41;7.88;;;5.80;;
53287;SDS011;39172;45.550;12.072;2023-03-31T22:23:42;6.47;;;5.28;;
53287;SDS011;39172;45.550;12.072;2023-03-31T22:29:43;7.10;;;5.38;;
53287;SDS011;39172;45.550;12.072;2023-03-31T22:35:44;8.98;;;6.68;;
53287;SDS011;39172;45.550;12.072;2023-03-31T22:41:46;8.75;;;6.72;;
53287;SDS011;39172;45.550;12.072;2023-03-31T22:47:47;8.75;;;6.95;;
53287;SDS011;39172;45.550;12.072;2023-03-31T22:53:51;10.27;;;7.60;;
53287;SDS011;39172;45.550;12.072;2023-03-31T22:59:52;11.23;;;7.90;;
53287;SDS011;39172;45.550;12.072;2023-03-31T23:05:53;14.88;;;11.13;;
53287;SDS011;39172;45.550;12.072;2023-03-31T23:11:54;18.10;;;13.10;;
53287;SDS011;39172;45.550;12.072;2023-03-31T23:17:55;15.57;;;11.60;;
53287;SDS011;39172;45.550;12.072;2023-03-31T23:23:56;13.88;;;10.20;;
53287;SDS011;39172;45.550;12.072;2023-03-31T23:29:58;12.52;;;9.60;;
53287;SDS011;39172;45.550;12.072;2023-03-31T23:35:59;14.63;;;11.45;;
53287;SDS011;39172;45.550;12.072;2023-03-31T23:42:01;13.07;;;10.10;;
53287;SDS011;39172;45.550;12.072;2023-03-31T23:48:03;13.02;;;9.80;;
53287;SDS011;39172;45.550;12.072;2023-03-31T23:54:04;12.10;;;8.80;;
